createdAt,value
2019-04-07T00:01:37.898Z,14.90
2019-04-07T00:04:07.725Z,14.90
2019-04-07T00:06:37.339Z,14.90
2019-04-07T00:09:07.922Z,14.90
2019-04-07T00:11:37.455Z,14.90
2019-04-07T00:14:07.181Z,14.90
2019-04-07T00:16:39.089Z,14.90
2019-04-07T00:19:08.725Z,14.90
2019-04-07T00:21:38.392Z,14.90
2019-04-07T00:24:09.309Z,14.90
2019-04-07T00:26:39.387Z,14.90
2019-04-07T00:29:09.049Z,14.90
2019-04-07T00:31:38.733Z,14.90
2019-04-07T00:34:08.297Z,14.90
2019-04-07T00:36:37.932Z,14.80
2019-04-07T00:39:08.449Z,14.90
2019-04-07T00:41:38.673Z,14.90
2019-04-07T00:44:08.385Z,14.90
2019-04-07T00:46:38.574Z,14.90
2019-04-07T00:49:08.326Z,14.90
2019-04-07T00:51:38.752Z,14.80
2019-04-07T00:54:08.614Z,14.80
2019-04-07T00:56:38.249Z,14.80
2019-04-07T00:59:07.852Z,14.80
2019-04-07T01:01:38.448Z,14.80
2019-04-07T01:04:08.046Z,14.80
2019-04-07T01:06:37.644Z,14.80
2019-04-07T01:09:09.146Z,14.80
2019-04-07T01:11:38.761Z,14.80
2019-04-07T01:14:09.396Z,14.80
2019-04-07T01:16:39.049Z,14.80
2019-04-07T01:19:09.994Z,14.80
2019-04-07T01:21:40.360Z,14.80
2019-04-07T01:24:11.099Z,14.80
2019-04-07T01:26:40.674Z,14.80
2019-04-07T01:29:10.800Z,14.80
2019-04-07T01:31:40.468Z,14.80
2019-04-07T01:34:10.612Z,14.80
2019-04-07T01:36:40.177Z,14.80
2019-04-07T01:39:11.038Z,14.80
2019-04-07T01:41:48.589Z,14.80
2019-04-07T01:44:27.564Z,14.80
2019-04-07T01:47:21.891Z,14.80
2019-04-07T01:50:16.367Z,14.80
2019-04-07T01:53:07.837Z,14.80
2019-04-07T01:56:05.544Z,14.80
2019-04-07T01:58:56.165Z,14.70
2019-04-07T02:01:52.699Z,14.70
2019-04-07T02:04:37.509Z,14.70
2019-04-07T02:07:32.648Z,14.70
2019-04-07T02:10:25.245Z,14.70
2019-04-07T02:13:16.533Z,14.70
2019-04-07T02:16:04.959Z,14.70
2019-04-07T02:19:06.249Z,14.70
2019-04-07T02:21:47.154Z,14.70
2019-04-07T02:24:35.646Z,14.70
2019-04-07T02:27:13.267Z,14.70
2019-04-07T02:30:08.027Z,14.70
2019-04-07T02:33:02.773Z,14.70
2019-04-07T02:36:12.850Z,14.60
2019-04-07T02:38:37.587Z,14.60
2019-04-07T02:41:29.014Z,14.60
2019-04-07T02:44:17.902Z,14.70
2019-04-07T02:47:04.241Z,14.70
2019-04-07T02:49:47.384Z,14.70
2019-04-07T02:52:33.170Z,14.60
2019-04-07T02:55:21.684Z,14.70
2019-04-07T02:58:07.710Z,14.60
2019-04-07T03:00:48.871Z,14.60
2019-04-07T03:03:36.852Z,14.60
2019-04-07T03:06:37.749Z,14.60
2019-04-07T03:09:18.899Z,14.60
2019-04-07T03:12:07.591Z,14.60
2019-04-07T03:15:05.405Z,14.60
2019-04-07T03:17:51.961Z,14.60
2019-04-07T03:20:41.386Z,14.60
2019-04-07T03:23:31.676Z,14.60
2019-04-07T03:26:18.441Z,14.60
2019-04-07T03:29:10.137Z,14.60
2019-04-07T03:31:59.815Z,14.60
2019-04-07T03:34:58.259Z,14.60
2019-04-07T03:37:44.004Z,14.60
2019-04-07T03:40:36.703Z,14.60
2019-04-07T03:43:15.884Z,14.60
2019-04-07T03:45:59.077Z,14.60
2019-04-07T03:48:39.199Z,14.60
2019-04-07T03:51:20.283Z,14.60
2019-04-07T03:54:21.457Z,14.60
2019-04-07T03:57:13.299Z,14.60
2019-04-07T04:00:14.430Z,14.60
2019-04-07T04:03:02.652Z,14.60
2019-04-07T04:06:01.262Z,14.60
2019-04-07T04:08:44.434Z,14.50
2019-04-07T04:11:29.894Z,14.50
2019-04-07T04:14:04.729Z,14.60
2019-04-07T04:16:44.559Z,14.60
2019-04-07T04:19:14.555Z,14.50
2019-04-07T04:21:44.475Z,14.60
2019-04-07T04:24:14.645Z,14.60
2019-04-07T04:26:44.266Z,14.60
2019-04-07T04:29:13.874Z,14.60
2019-04-07T04:31:43.546Z,14.60
2019-04-07T04:34:13.926Z,14.60
2019-04-07T04:36:44.593Z,14.50
2019-04-07T04:39:18.754Z,14.50
2019-04-07T04:41:47.123Z,14.50
2019-04-07T04:44:16.716Z,14.50
2019-04-07T04:46:49.847Z,14.50
2019-04-07T04:49:19.971Z,14.50
2019-04-07T04:51:50.275Z,14.50
2019-04-07T04:54:19.930Z,14.50
2019-04-07T04:56:50.363Z,14.50
2019-04-07T04:59:21.543Z,14.50
2019-04-07T05:01:51.826Z,14.50
2019-04-07T05:04:24.131Z,14.50
2019-04-07T05:06:54.303Z,14.50
2019-04-07T05:09:26.984Z,14.50
2019-04-07T05:11:56.753Z,14.50
2019-04-07T05:14:26.385Z,14.50
2019-04-07T05:16:57.619Z,14.50
2019-04-07T05:19:27.393Z,14.50
2019-04-07T05:21:57.090Z,14.50
2019-04-07T05:24:26.844Z,14.50
2019-04-07T05:26:56.440Z,14.50
2019-04-07T05:29:26.593Z,14.50
2019-04-07T05:31:56.637Z,14.50
2019-04-07T05:34:28.001Z,14.50
2019-04-07T05:36:57.598Z,14.50
2019-04-07T05:39:27.284Z,14.50
2019-04-07T05:42:00.132Z,14.50
2019-04-07T05:44:30.515Z,14.50
2019-04-07T05:47:03.073Z,14.50
2019-04-07T05:49:33.475Z,14.50
2019-04-07T05:52:05.674Z,14.50
2019-04-07T05:54:36.116Z,14.50
2019-04-07T05:57:06.284Z,14.50
2019-04-07T05:59:36.369Z,14.50
2019-04-07T06:02:06.871Z,14.50
2019-04-07T06:04:37.008Z,14.50
2019-04-07T06:07:07.017Z,14.50
2019-04-07T06:09:37.345Z,14.50
2019-04-07T06:12:09.643Z,14.50
2019-04-07T06:14:38.851Z,14.50
2019-04-07T06:17:08.978Z,14.50
2019-04-07T06:19:41.126Z,14.50
2019-04-07T06:22:10.086Z,14.50
2019-04-07T06:24:40.691Z,14.50
2019-04-07T06:27:10.984Z,14.50
2019-04-07T06:29:41.116Z,14.50
2019-04-07T06:32:16.810Z,14.50
2019-04-07T06:34:49.013Z,14.50
2019-04-07T06:37:17.847Z,14.50
2019-04-07T06:39:50.793Z,14.50
2019-04-07T06:42:19.642Z,14.50
2019-04-07T06:44:52.162Z,14.50
2019-04-07T06:47:48.588Z,14.60
2019-04-07T06:50:50.259Z,14.50
2019-04-07T06:53:37.106Z,14.50
2019-04-07T06:56:38.597Z,14.50
2019-04-07T06:59:34.031Z,14.50
2019-04-07T07:02:22.676Z,14.60
2019-04-07T07:05:23.622Z,14.60
2019-04-07T07:08:06.065Z,14.60
2019-04-07T07:10:43.017Z,14.60
2019-04-07T07:13:30.744Z,14.60
2019-04-07T07:16:10.449Z,14.60
2019-04-07T07:18:56.100Z,14.60
2019-04-07T07:21:50.160Z,14.60
2019-04-07T07:24:24.988Z,14.60
2019-04-07T07:26:51.074Z,14.60
2019-04-07T07:29:21.326Z,14.60
2019-04-07T07:31:53.084Z,14.70
2019-04-07T07:34:23.285Z,14.60
2019-04-07T07:36:56.557Z,14.60
2019-04-07T07:39:26.246Z,14.70
2019-04-07T07:41:56.687Z,14.70
2019-04-07T07:44:26.875Z,14.70
2019-04-07T07:46:57.089Z,14.70
2019-04-07T07:49:28.832Z,14.70
2019-04-07T07:51:59.288Z,14.70
2019-04-07T07:54:30.414Z,14.70
2019-04-07T07:57:00.274Z,14.80
2019-04-07T07:59:33.139Z,14.70
2019-04-07T08:02:01.360Z,14.80
2019-04-07T08:04:30.962Z,14.80
2019-04-07T08:07:02.638Z,14.80
2019-04-07T08:09:34.192Z,14.80
2019-04-07T08:12:04.060Z,14.80
2019-04-07T08:14:33.940Z,14.80
2019-04-07T08:17:04.088Z,14.90
2019-04-07T08:19:34.879Z,14.80
2019-04-07T08:22:06.531Z,14.90
2019-04-07T08:24:37.265Z,14.90
2019-04-07T08:27:07.353Z,14.90
2019-04-07T08:29:39.563Z,14.90
2019-04-07T08:32:09.192Z,14.90
2019-04-07T08:34:38.795Z,14.90
2019-04-07T08:37:09.535Z,15.00
2019-04-07T08:39:39.744Z,15.00
2019-04-07T08:42:11.179Z,15.00
2019-04-07T08:44:40.854Z,15.10
2019-04-07T08:47:14.431Z,15.10
2019-04-07T08:49:42.657Z,15.10
2019-04-07T08:52:12.791Z,15.10
2019-04-07T08:54:43.254Z,15.20
2019-04-07T08:57:14.098Z,15.20
2019-04-07T08:59:43.829Z,15.20
2019-04-07T09:02:13.675Z,15.30
2019-04-07T09:04:47.318Z,15.30
2019-04-07T09:07:16.473Z,15.30
2019-04-07T09:09:50.219Z,15.30
2019-04-07T09:12:21.771Z,15.30
2019-04-07T09:14:52.220Z,15.40
2019-04-07T09:17:43.396Z,15.40
2019-04-07T09:20:31.332Z,15.40
2019-04-07T09:23:16.416Z,15.40
2019-04-07T09:26:04.275Z,15.50
2019-04-07T09:28:55.472Z,15.50
2019-04-07T09:31:43.210Z,15.50
2019-04-07T09:34:35.947Z,15.60
2019-04-07T09:37:22.025Z,15.60
2019-04-07T09:40:05.552Z,15.60
2019-04-07T09:42:57.439Z,15.60
2019-04-07T09:45:42.571Z,15.70
2019-04-07T09:48:32.124Z,15.70
2019-04-07T09:51:10.109Z,15.80
2019-04-07T09:54:05.203Z,15.80
2019-04-07T09:57:06.944Z,15.80
2019-04-07T09:59:54.522Z,15.90
2019-04-07T10:02:35.596Z,16.00
2019-04-07T10:05:31.779Z,15.90
2019-04-07T10:08:19.578Z,16.00
2019-04-07T10:11:00.965Z,16.00
2019-04-07T10:13:51.830Z,16.00
2019-04-07T10:16:43.397Z,16.10
2019-04-07T10:19:44.670Z,16.10
2019-04-07T10:22:34.090Z,16.10
2019-04-07T10:25:29.025Z,16.20
2019-04-07T10:28:09.400Z,16.30
2019-04-07T10:30:55.023Z,16.30
2019-04-07T10:33:43.685Z,16.30
2019-04-07T10:36:29.715Z,16.40
2019-04-07T10:39:17.537Z,16.40
2019-04-07T10:42:03.364Z,16.40
2019-04-07T10:44:38.604Z,16.50
2019-04-07T10:47:29.392Z,16.50
2019-04-07T10:50:24.626Z,16.60
2019-04-07T10:53:14.352Z,16.60
2019-04-07T10:55:49.694Z,16.60
2019-04-07T10:58:54.013Z,16.70
2019-04-07T11:01:43.413Z,16.80
2019-04-07T11:04:31.675Z,16.80
2019-04-07T11:07:18.627Z,16.80
2019-04-07T11:10:10.197Z,16.90
2019-04-07T11:13:15.679Z,16.90
2019-04-07T11:16:23.052Z,17.00
2019-04-07T11:19:15.277Z,17.00
2019-04-07T11:22:14.409Z,17.00
2019-04-07T11:25:16.464Z,17.00
2019-04-07T11:28:08.658Z,17.10
2019-04-07T11:30:58.516Z,17.10
2019-04-07T11:33:47.061Z,17.10
2019-04-07T11:36:28.717Z,17.20
2019-04-07T11:39:18.957Z,17.20
2019-04-07T11:42:07.595Z,17.20
2019-04-07T11:45:03.202Z,17.30
2019-04-07T11:47:52.609Z,17.30
2019-04-07T11:50:41.698Z,17.40
2019-04-07T11:53:31.888Z,17.40
2019-04-07T11:56:16.417Z,17.40
2019-04-07T11:59:14.780Z,17.50
2019-04-07T12:02:03.513Z,17.50
2019-04-07T12:04:55.440Z,17.50
2019-04-07T12:07:34.669Z,17.60
2019-04-07T12:10:31.727Z,17.60
2019-04-07T12:13:22.275Z,17.70
2019-04-07T12:16:10.316Z,17.70
2019-04-07T12:19:03.268Z,17.70
2019-04-07T12:21:57.929Z,17.70
2019-04-07T12:24:59.255Z,17.70
2019-04-07T12:27:47.116Z,17.80
2019-04-07T12:30:36.929Z,17.80
2019-04-07T12:33:27.158Z,17.80
2019-04-07T12:36:18.846Z,17.90
2019-04-07T12:39:08.341Z,17.90
2019-04-07T12:42:09.066Z,17.90
2019-04-07T12:44:57.078Z,17.90
2019-04-07T12:47:47.385Z,17.90
2019-04-07T12:50:35.659Z,17.90
2019-04-07T12:53:27.572Z,18.00
2019-04-07T12:56:19.252Z,18.00
2019-04-07T12:58:59.084Z,18.00
2019-04-07T13:01:43.812Z,18.00
2019-04-07T13:04:20.732Z,18.10
2019-04-07T13:07:00.223Z,18.10
2019-04-07T13:09:48.086Z,18.10
2019-04-07T13:12:41.217Z,18.20
2019-04-07T13:15:38.871Z,18.20
2019-04-07T13:18:39.132Z,18.20
2019-04-07T13:21:15.541Z,18.30
2019-04-07T13:24:03.606Z,18.30
2019-04-07T13:26:45.945Z,18.30
2019-04-07T13:29:27.965Z,18.30
2019-04-07T13:32:19.574Z,18.30
2019-04-07T13:34:58.385Z,18.30
2019-04-07T13:37:42.412Z,18.30
2019-04-07T13:40:28.210Z,18.40
2019-04-07T13:43:21.139Z,18.40
2019-04-07T13:46:18.845Z,18.40
2019-04-07T13:49:01.886Z,18.40
2019-04-07T13:51:51.345Z,18.40
2019-04-07T13:54:43.668Z,18.50
2019-04-07T13:57:40.399Z,18.50
2019-04-07T14:00:45.319Z,18.50
2019-04-07T14:03:32.760Z,18.40
2019-04-07T14:06:30.535Z,18.50
2019-04-07T14:09:09.288Z,18.50
2019-04-07T14:12:04.804Z,18.50
2019-04-07T14:14:52.638Z,18.50
2019-04-07T14:17:33.442Z,18.50
2019-04-07T14:20:21.546Z,18.60
2019-04-07T14:22:57.861Z,18.60
2019-04-07T14:25:54.895Z,18.60
2019-04-07T14:28:44.128Z,18.60
2019-04-07T14:31:29.368Z,18.60
2019-04-07T14:34:24.312Z,18.60
2019-04-07T14:37:20.332Z,18.60
2019-04-07T14:40:09.602Z,18.60
2019-04-07T14:42:58.334Z,18.70
2019-04-07T14:45:52.699Z,18.70
2019-04-07T14:48:54.367Z,18.70
2019-04-07T14:51:53.568Z,18.70
2019-04-07T14:54:46.431Z,18.70
2019-04-07T14:57:22.835Z,18.70
2019-04-07T15:00:26.952Z,18.60
2019-04-07T15:02:55.452Z,18.70
2019-04-07T15:05:32.879Z,18.70
2019-04-07T15:08:20.517Z,18.70
2019-04-07T15:10:52.921Z,18.70
2019-04-07T15:13:28.051Z,18.70
2019-04-07T15:15:57.166Z,18.70
2019-04-07T15:18:27.608Z,18.70
2019-04-07T15:20:57.774Z,18.70
2019-04-07T15:23:29.494Z,18.70
2019-04-07T15:25:59.067Z,18.70
2019-04-07T15:28:31.460Z,18.70
2019-04-07T15:31:00.973Z,18.70
2019-04-07T15:33:33.622Z,18.70
2019-04-07T15:36:02.115Z,18.70
2019-04-07T15:38:32.306Z,18.70
2019-04-07T15:41:07.721Z,18.70
2019-04-07T15:43:35.264Z,18.70
2019-04-07T15:46:05.535Z,18.70
2019-04-07T15:48:35.172Z,18.70
2019-04-07T15:51:05.115Z,18.70
2019-04-07T15:53:36.804Z,18.70
2019-04-07T15:56:07.195Z,18.70
2019-04-07T15:58:37.607Z,18.70
2019-04-07T16:01:09.393Z,18.70
2019-04-07T16:03:38.833Z,18.70
2019-04-07T16:06:09.690Z,18.80
2019-04-07T16:08:40.482Z,18.80
2019-04-07T16:11:11.377Z,18.70
2019-04-07T16:13:42.287Z,18.70
2019-04-07T16:16:12.305Z,18.70
2019-04-07T16:18:43.411Z,18.70
2019-04-07T16:21:14.203Z,18.80
2019-04-07T16:23:48.737Z,18.80
2019-04-07T16:26:17.678Z,18.80
2019-04-07T16:28:47.255Z,18.80
2019-04-07T16:31:16.869Z,18.80
2019-04-07T16:33:46.605Z,18.80
2019-04-07T16:36:16.199Z,18.80
2019-04-07T16:38:46.542Z,18.80
2019-04-07T16:41:16.734Z,18.80
2019-04-07T16:43:47.268Z,18.80
2019-04-07T16:46:21.652Z,18.80
2019-04-07T16:48:49.073Z,18.80
2019-04-07T16:51:18.692Z,18.80
2019-04-07T16:53:48.337Z,18.80
2019-04-07T16:56:20.682Z,18.80
2019-04-07T16:58:50.187Z,18.80
2019-04-07T17:01:20.342Z,18.80
2019-04-07T17:03:49.975Z,18.80
2019-04-07T17:06:19.956Z,18.80
2019-04-07T17:08:52.221Z,18.80
2019-04-07T17:11:21.428Z,18.80
2019-04-07T17:13:52.672Z,18.80
2019-04-07T17:16:24.731Z,18.80
2019-04-07T17:18:56.202Z,18.80
2019-04-07T17:21:25.498Z,18.80
2019-04-07T17:23:56.834Z,18.80
2019-04-07T17:26:27.548Z,18.80
2019-04-07T17:28:58.601Z,18.80
2019-04-07T17:31:31.019Z,18.80
2019-04-07T17:34:00.932Z,18.80
2019-04-07T17:36:31.784Z,18.80
2019-04-07T17:39:31.969Z,18.80
2019-04-07T17:42:01.592Z,18.80
2019-04-07T17:44:51.353Z,18.70
2019-04-07T17:47:32.736Z,18.70
2019-04-07T17:50:30.447Z,18.70
2019-04-07T17:53:17.661Z,18.70
2019-04-07T17:56:22.218Z,18.70
2019-04-07T17:59:14.255Z,18.70
2019-04-07T18:01:56.742Z,18.70
2019-04-07T18:04:50.126Z,18.70
2019-04-07T18:07:39.435Z,18.70
2019-04-07T18:10:22.542Z,18.70
2019-04-07T18:13:12.107Z,18.70
2019-04-07T18:16:06.808Z,18.70
2019-04-07T18:18:57.534Z,18.70
2019-04-07T18:21:44.944Z,18.60
2019-04-07T18:24:30.851Z,18.60
2019-04-07T18:27:23.480Z,18.60
2019-04-07T18:30:10.082Z,18.60
2019-04-07T18:33:05.429Z,18.60
2019-04-07T18:35:54.080Z,18.60
2019-04-07T18:38:45.040Z,18.60
2019-04-07T18:41:34.027Z,18.60
2019-04-07T18:44:12.604Z,18.50
2019-04-07T18:47:00.169Z,18.50
2019-04-07T18:49:50.486Z,18.50
2019-04-07T18:52:32.572Z,18.50
2019-04-07T18:55:18.167Z,18.50
2019-04-07T18:58:01.908Z,18.50
2019-04-07T19:00:50.667Z,18.50
2019-04-07T19:03:41.827Z,18.50
2019-04-07T19:06:30.137Z,18.50
2019-04-07T19:09:10.259Z,18.50
2019-04-07T19:12:18.936Z,18.50
2019-04-07T19:15:02.444Z,18.50
2019-04-07T19:17:46.086Z,18.50
2019-04-07T19:20:39.420Z,18.50
2019-04-07T19:23:21.582Z,18.50
2019-04-07T19:25:59.485Z,18.50
2019-04-07T19:28:51.854Z,18.50
2019-04-07T19:31:42.719Z,18.50
2019-04-07T19:34:36.017Z,18.50
2019-04-07T19:37:28.289Z,18.40
2019-04-07T19:40:17.625Z,18.40
2019-04-07T19:43:05.909Z,18.40
2019-04-07T19:45:54.726Z,18.40
2019-04-07T19:48:49.093Z,18.40
2019-04-07T19:51:39.510Z,18.40
2019-04-07T19:54:48.691Z,18.40
2019-04-07T19:57:46.959Z,18.40
2019-04-07T20:00:35.355Z,18.40
2019-04-07T20:03:36.988Z,18.30
2019-04-07T20:06:22.379Z,18.30
2019-04-07T20:09:05.064Z,18.30
2019-04-07T20:11:52.951Z,18.30
2019-04-07T20:14:58.890Z,18.40
2019-04-07T20:17:53.393Z,18.30
2019-04-07T20:20:53.555Z,18.30
2019-04-07T20:23:33.070Z,18.30
2019-04-07T20:26:22.562Z,18.30
2019-04-07T20:29:11.044Z,18.30
2019-04-07T20:32:00.550Z,18.30
2019-04-07T20:34:55.243Z,18.30
2019-04-07T20:37:43.004Z,18.30
2019-04-07T20:40:29.483Z,18.20
2019-04-07T20:43:23.424Z,18.20
2019-04-07T20:46:11.064Z,18.20
2019-04-07T20:49:05.232Z,18.20
2019-04-07T20:51:54.422Z,18.20
2019-04-07T20:54:37.767Z,18.20
2019-04-07T20:57:35.197Z,18.20
2019-04-07T21:00:23.603Z,18.20
2019-04-07T21:03:14.475Z,18.20
2019-04-07T21:05:53.478Z,18.20
2019-04-07T21:08:46.437Z,18.20
2019-04-07T21:11:27.945Z,18.20
2019-04-07T21:14:18.624Z,18.20
2019-04-07T21:17:10.746Z,18.20
2019-04-07T21:20:05.409Z,18.20
2019-04-07T21:22:52.207Z,18.20
2019-04-07T21:25:43.871Z,18.20
2019-04-07T21:28:39.019Z,18.10
2019-04-07T21:31:37.666Z,18.10
2019-04-07T21:34:33.350Z,18.10
2019-04-07T21:37:28.484Z,18.10
2019-04-07T21:40:16.072Z,18.10
2019-04-07T21:43:02.763Z,18.10
2019-04-07T21:46:09.938Z,18.10
2019-04-07T21:49:00.686Z,18.10
2019-04-07T21:51:52.821Z,18.10
2019-04-07T21:54:40.903Z,18.10
2019-04-07T21:57:20.200Z,18.10
2019-04-07T22:00:12.692Z,18.10
2019-04-07T22:03:13.403Z,18.10
2019-04-07T22:06:05.645Z,18.00
2019-04-07T22:08:42.555Z,18.00
2019-04-07T22:11:11.573Z,18.00
2019-04-07T22:13:41.152Z,18.00
2019-04-07T22:16:12.513Z,18.00
2019-04-07T22:18:42.985Z,18.00
2019-04-07T22:21:13.785Z,18.00
2019-04-07T22:23:44.317Z,18.00
2019-04-07T22:26:17.626Z,18.00
2019-04-07T22:28:45.789Z,18.00
2019-04-07T22:31:19.286Z,18.00
2019-04-07T22:33:48.931Z,18.00
2019-04-07T22:36:18.847Z,18.00
2019-04-07T22:38:51.690Z,18.00
2019-04-07T22:41:20.335Z,18.00
2019-04-07T22:43:51.594Z,18.00
2019-04-07T22:46:24.589Z,18.00
2019-04-07T22:48:55.189Z,17.90
2019-04-07T22:51:25.605Z,17.90
2019-04-07T22:53:57.533Z,17.90
2019-04-07T22:56:26.585Z,17.90
2019-04-07T22:58:56.346Z,17.90
2019-04-07T23:01:25.988Z,17.90
2019-04-07T23:03:56.085Z,17.90
2019-04-07T23:06:26.620Z,17.90
2019-04-07T23:08:57.358Z,17.90
2019-04-07T23:11:27.889Z,17.90
2019-04-07T23:13:58.941Z,17.90
2019-04-07T23:16:29.517Z,17.90
2019-04-07T23:18:59.247Z,17.80
2019-04-07T23:21:29.845Z,17.90
2019-04-07T23:24:00.151Z,17.80
2019-04-07T23:26:30.078Z,17.80
2019-04-07T23:28:59.803Z,17.80
2019-04-07T23:31:32.059Z,17.80
2019-04-07T23:34:02.833Z,17.80
2019-04-07T23:36:33.847Z,17.80
2019-04-07T23:39:05.907Z,17.80
2019-04-07T23:41:35.550Z,17.80
2019-04-07T23:44:05.983Z,17.70
2019-04-07T23:46:36.321Z,17.70
2019-04-07T23:49:08.687Z,17.70
2019-04-07T23:51:41.474Z,17.70
2019-04-07T23:54:14.821Z,17.70
2019-04-07T23:56:44.850Z,17.70
2019-04-07T23:59:14.773Z,17.70
